createdAt,value
2022-09-11T00:00:42.006Z,94.70
2022-09-11T00:03:12.512Z,95.00
2022-09-11T00:05:44.000Z,94.27
2022-09-11T00:08:20.466Z,94.61
2022-09-11T00:10:52.184Z,94.72
2022-09-11T00:13:25.704Z,94.28
2022-09-11T00:15:55.859Z,93.98
2022-09-11T00:18:28.440Z,93.22
2022-09-11T00:21:00.811Z,92.80
2022-09-11T00:23:33.507Z,92.48
2022-09-11T00:26:06.292Z,92.18
2022-09-11T00:28:37.174Z,91.74
2022-09-11T00:31:10.238Z,91.41
2022-09-11T00:33:40.300Z,90.81
2022-09-11T00:36:15.875Z,90.27
2022-09-11T00:38:48.699Z,90.47
2022-09-11T00:41:22.477Z,90.20
2022-09-11T00:44:04.247Z,90.48
2022-09-11T00:46:41.869Z,89.81
2022-09-11T00:49:24.883Z,90.04
2022-09-11T00:52:00.958Z,90.22
2022-09-11T00:54:38.678Z,90.28
2022-09-11T00:57:11.502Z,90.53
2022-09-11T00:59:45.842Z,90.51
2022-09-11T01:02:27.180Z,89.92
2022-09-11T01:04:59.248Z,90.29
2022-09-11T01:07:32.254Z,90.98
2022-09-11T01:10:05.368Z,91.12
2022-09-11T01:12:44.607Z,91.11
2022-09-11T01:15:24.461Z,91.03
2022-09-11T01:18:06.344Z,90.84
2022-09-11T01:20:53.455Z,90.32
2022-09-11T01:23:42.902Z,90.89
2022-09-11T01:26:41.360Z,90.43
2022-09-11T01:29:22.912Z,90.56
2022-09-11T01:32:02.739Z,91.21
2022-09-11T01:34:40.606Z,91.10
2022-09-11T01:37:17.774Z,91.10
2022-09-11T01:39:54.574Z,92.70
2022-09-11T01:42:27.880Z,93.26
2022-09-11T01:45:00.761Z,94.19
2022-09-11T01:47:33.109Z,94.60
2022-09-11T01:50:07.519Z,94.44
2022-09-11T01:52:45.106Z,93.69
2022-09-11T01:55:20.925Z,93.41
2022-09-11T01:57:55.537Z,93.33
2022-09-11T02:00:28.912Z,92.61
2022-09-11T02:03:03.940Z,93.36
2022-09-11T02:05:43.883Z,94.40
2022-09-11T02:08:24.459Z,95.81
2022-09-11T02:11:03.850Z,98.05
2022-09-11T02:13:42.218Z,99.31
2022-09-11T02:16:22.955Z,99.00
2022-09-11T02:19:03.541Z,98.67
2022-09-11T02:21:34.832Z,96.02
2022-09-11T02:24:05.723Z,94.10
2022-09-11T02:26:41.624Z,93.42
2022-09-11T02:29:11.845Z,93.08
2022-09-11T02:31:45.601Z,93.26
2022-09-11T02:34:18.043Z,94.61
2022-09-11T02:37:07.163Z,95.63
2022-09-11T02:40:02.600Z,96.46
2022-09-11T02:42:47.376Z,97.67
2022-09-11T02:45:35.717Z,98.46
2022-09-11T02:48:32.650Z,98.16
2022-09-11T02:51:11.517Z,98.29
2022-09-11T02:53:51.565Z,98.36
2022-09-11T02:56:34.804Z,97.87
2022-09-11T02:59:11.266Z,97.03
2022-09-11T03:01:55.318Z,95.46
2022-09-11T03:04:34.913Z,95.40
2022-09-11T03:07:06.990Z,95.71
2022-09-11T03:09:37.709Z,94.69
2022-09-11T03:12:14.279Z,94.48
2022-09-11T03:14:44.501Z,94.63
2022-09-11T03:17:14.627Z,94.64
2022-09-11T03:19:47.370Z,94.73
2022-09-11T03:22:17.521Z,94.58
2022-09-11T03:24:48.217Z,94.67
2022-09-11T03:27:18.586Z,94.70
2022-09-11T03:29:48.974Z,94.49
2022-09-11T03:32:19.307Z,95.11
2022-09-11T03:34:52.255Z,95.91
2022-09-11T03:37:22.342Z,95.74
2022-09-11T03:39:54.893Z,96.19
2022-09-11T03:42:25.291Z,95.94
2022-09-11T03:44:55.435Z,96.05
2022-09-11T03:47:25.589Z,95.59
2022-09-11T03:49:59.794Z,94.50
2022-09-11T03:52:30.394Z,94.50
2022-09-11T03:55:00.484Z,94.55
2022-09-11T03:57:30.730Z,94.84
2022-09-11T04:00:01.587Z,95.46
2022-09-11T04:02:37.543Z,95.95
2022-09-11T04:05:12.236Z,95.84
2022-09-11T04:07:43.602Z,96.22
2022-09-11T04:10:14.657Z,97.09
2022-09-11T04:12:44.830Z,96.66
2022-09-11T04:15:15.134Z,97.30
2022-09-11T04:17:45.196Z,97.53
2022-09-11T04:20:18.362Z,97.42
2022-09-11T04:22:49.433Z,97.66
2022-09-11T04:25:19.702Z,98.26
2022-09-11T04:27:49.833Z,99.45
2022-09-11T04:30:22.400Z,100.00
2022-09-11T04:32:53.288Z,100.00
2022-09-11T04:35:27.126Z,100.00
2022-09-11T04:38:00.164Z,100.00
2022-09-11T04:40:30.175Z,100.00
2022-09-11T04:43:01.145Z,100.00
2022-09-11T04:45:33.384Z,100.00
2022-09-11T04:48:06.258Z,99.81
2022-09-11T04:50:38.981Z,100.00
2022-09-11T04:53:24.558Z,99.71
2022-09-11T04:55:55.202Z,100.00
2022-09-11T04:58:25.756Z,100.00
2022-09-11T05:00:55.832Z,100.00
2022-09-11T05:03:26.346Z,100.00
2022-09-11T05:06:01.549Z,100.00
2022-09-11T05:08:32.942Z,100.00
2022-09-11T05:11:05.496Z,100.00
2022-09-11T05:13:36.786Z,100.00
2022-09-11T05:16:09.983Z,100.00
2022-09-11T05:18:40.693Z,99.77
2022-09-11T05:21:18.313Z,99.87
2022-09-11T05:23:52.213Z,100.00
2022-09-11T05:26:24.759Z,99.77
2022-09-11T05:28:57.571Z,99.37
2022-09-11T05:31:29.044Z,98.65
2022-09-11T05:34:00.612Z,98.73
2022-09-11T05:36:35.439Z,98.76
2022-09-11T05:39:07.214Z,99.05
2022-09-11T05:41:37.868Z,99.29
2022-09-11T05:44:08.176Z,99.04
2022-09-11T05:46:40.658Z,99.16
2022-09-11T05:49:10.708Z,98.57
2022-09-11T05:51:45.924Z,98.92
2022-09-11T05:54:16.084Z,98.64
2022-09-11T05:56:48.190Z,98.86
2022-09-11T05:59:27.200Z,98.53
2022-09-11T06:01:57.449Z,98.79
2022-09-11T06:04:40.177Z,98.89
2022-09-11T06:07:14.327Z,99.29
2022-09-11T06:09:46.185Z,98.63
2022-09-11T06:12:16.196Z,98.91
2022-09-11T06:14:46.742Z,98.49
2022-09-11T06:17:17.365Z,97.57
2022-09-11T06:19:48.069Z,98.34
2022-09-11T06:22:22.469Z,98.81
2022-09-11T06:24:54.366Z,97.95
2022-09-11T06:27:25.223Z,98.17
2022-09-11T06:29:56.531Z,97.83
2022-09-11T06:32:26.512Z,97.43
2022-09-11T06:34:59.082Z,97.40
2022-09-11T06:37:31.972Z,97.40
2022-09-11T06:40:03.254Z,98.12
2022-09-11T06:42:34.050Z,97.48
2022-09-11T06:45:04.775Z,97.40
2022-09-11T06:47:35.032Z,97.28
2022-09-11T06:50:06.974Z,97.12
2022-09-11T06:52:50.247Z,97.85
2022-09-11T06:55:30.409Z,97.87
2022-09-11T06:58:07.560Z,97.88
2022-09-11T07:00:40.687Z,96.56
2022-09-11T07:03:16.887Z,96.24
2022-09-11T07:05:49.869Z,95.57
2022-09-11T07:08:24.968Z,96.09
2022-09-11T07:10:55.627Z,95.78
2022-09-11T07:13:26.474Z,95.55
2022-09-11T07:16:03.405Z,96.12
2022-09-11T07:18:37.869Z,95.01
2022-09-11T07:21:14.208Z,95.20
2022-09-11T07:23:51.251Z,94.90
2022-09-11T07:26:23.551Z,95.13
2022-09-11T07:28:57.727Z,95.67
2022-09-11T07:31:29.258Z,95.77
2022-09-11T07:34:00.098Z,96.32
2022-09-11T07:36:31.038Z,97.61
2022-09-11T07:39:05.677Z,97.96
2022-09-11T07:41:52.946Z,97.61
2022-09-11T07:44:28.504Z,95.84
2022-09-11T07:47:00.944Z,95.57
2022-09-11T07:49:33.452Z,95.52
2022-09-11T07:52:03.712Z,94.41
2022-09-11T07:54:51.310Z,94.59
2022-09-11T07:57:24.310Z,95.29
2022-09-11T07:59:54.957Z,95.12
2022-09-11T08:02:25.558Z,94.97
2022-09-11T08:04:56.458Z,95.47
2022-09-11T08:07:26.978Z,94.66
2022-09-11T08:10:23.263Z,92.90
2022-09-11T08:12:50.936Z,91.60
2022-09-11T08:15:21.840Z,92.22
2022-09-11T08:17:52.876Z,92.60
2022-09-11T08:20:22.946Z,91.65
2022-09-11T08:22:53.151Z,91.87
2022-09-11T08:25:25.854Z,91.63
2022-09-11T08:27:55.942Z,90.89
2022-09-11T08:30:27.427Z,89.89
2022-09-11T08:32:57.537Z,88.09
2022-09-11T08:35:28.226Z,85.66
2022-09-11T08:37:58.382Z,80.67
2022-09-11T08:40:32.308Z,81.01
2022-09-11T08:43:06.576Z,82.00
2022-09-11T08:45:38.882Z,80.91
2022-09-11T08:48:11.374Z,80.84
2022-09-11T08:50:45.850Z,80.56
2022-09-11T08:53:21.395Z,81.25
2022-09-11T08:56:03.207Z,80.25
2022-09-11T08:58:44.653Z,79.24
2022-09-11T09:01:29.212Z,77.77
2022-09-11T09:04:27.625Z,76.37
2022-09-11T09:07:12.062Z,72.91
2022-09-11T09:09:54.046Z,71.82
2022-09-11T09:12:35.602Z,70.79
2022-09-11T09:15:21.366Z,73.40
2022-09-11T09:18:00.720Z,74.50
2022-09-11T09:20:37.451Z,73.83
2022-09-11T09:23:19.195Z,72.70
2022-09-11T09:25:52.849Z,71.53
2022-09-11T09:28:29.521Z,70.63
2022-09-11T09:31:06.090Z,71.96
2022-09-11T09:33:38.705Z,72.22
2022-09-11T09:36:17.846Z,72.65
2022-09-11T09:38:49.349Z,72.38
2022-09-11T09:42:03.820Z,73.18
2022-09-11T09:44:56.543Z,72.56
2022-09-11T09:47:26.906Z,71.56
2022-09-11T09:49:59.237Z,72.10
2022-09-11T09:52:36.159Z,72.70
2022-09-11T09:55:17.540Z,71.33
2022-09-11T09:57:48.207Z,68.16
2022-09-11T10:00:22.621Z,71.95
2022-09-11T10:02:56.655Z,74.28
2022-09-11T10:05:31.172Z,75.29
2022-09-11T10:08:03.835Z,76.81
2022-09-11T10:10:38.192Z,77.62
2022-09-11T10:13:25.165Z,77.22
2022-09-11T10:16:02.048Z,76.95
2022-09-11T10:18:42.411Z,77.26
2022-09-11T10:21:37.512Z,77.60
2022-09-11T10:24:26.347Z,78.17
2022-09-11T10:26:59.291Z,80.10
2022-09-11T10:29:32.368Z,81.19
2022-09-11T10:32:06.577Z,82.10
2022-09-11T10:34:41.158Z,82.77
2022-09-11T10:37:27.435Z,82.52
2022-09-11T10:40:08.322Z,83.66
2022-09-11T10:42:40.235Z,84.71
2022-09-11T10:45:18.121Z,84.97
2022-09-11T10:47:51.012Z,85.96
2022-09-11T10:50:29.770Z,86.32
2022-09-11T10:53:19.892Z,86.51
2022-09-11T10:56:00.279Z,87.24
2022-09-11T10:58:36.929Z,88.37
2022-09-11T11:01:07.141Z,88.87
2022-09-11T11:03:39.996Z,87.53
2022-09-11T11:06:26.449Z,88.00
2022-09-11T11:09:17.055Z,87.72
2022-09-11T11:12:05.487Z,87.25
2022-09-11T11:14:59.376Z,86.85
2022-09-11T11:17:43.275Z,86.57
2022-09-11T11:20:30.238Z,86.54
2022-09-11T11:23:22.355Z,87.35
2022-09-11T11:26:06.529Z,87.20
2022-09-11T11:28:58.726Z,87.35
2022-09-11T11:31:44.226Z,87.51
2022-09-11T11:34:36.899Z,87.26
2022-09-11T11:37:18.022Z,85.86
2022-09-11T11:39:57.327Z,84.94
2022-09-11T11:42:31.169Z,85.56
2022-09-11T11:45:07.492Z,87.71
2022-09-11T11:47:42.725Z,88.55
2022-09-11T11:50:31.123Z,88.71
2022-09-11T11:53:13.154Z,88.14
2022-09-11T11:55:58.020Z,88.12
2022-09-11T11:58:43.725Z,88.25
2022-09-11T12:01:25.780Z,88.78
2022-09-11T12:04:04.518Z,89.82
2022-09-11T12:06:35.436Z,90.53
2022-09-11T12:09:11.896Z,90.10
2022-09-11T12:11:42.299Z,90.04
2022-09-11T12:14:32.233Z,90.73
2022-09-11T12:17:21.914Z,90.43
2022-09-11T12:20:18.701Z,89.86
2022-09-11T12:22:50.617Z,89.46
2022-09-11T12:25:54.745Z,89.51
2022-09-11T12:28:27.580Z,89.28
2022-09-11T12:31:07.992Z,88.15
2022-09-11T12:33:58.156Z,87.33
2022-09-11T12:36:36.313Z,85.82
2022-09-11T12:39:27.732Z,87.17
2022-09-11T12:42:42.840Z,86.47
2022-09-11T12:45:35.211Z,87.01
2022-09-11T12:48:09.448Z,86.70
2022-09-11T12:50:40.868Z,86.71
2022-09-11T12:53:22.924Z,85.22
2022-09-11T12:55:59.520Z,84.09
2022-09-11T12:58:36.813Z,84.43
2022-09-11T13:01:20.686Z,85.62
2022-09-11T13:04:01.167Z,85.19
2022-09-11T13:06:43.363Z,82.69
2022-09-11T13:09:24.281Z,81.01
2022-09-11T13:11:57.058Z,81.47
2022-09-11T13:14:52.089Z,80.44
2022-09-11T13:17:31.459Z,78.75
2022-09-11T13:20:24.331Z,77.22
2022-09-11T13:22:58.387Z,75.63
2022-09-11T13:25:31.643Z,74.33
2022-09-11T13:28:04.419Z,74.91
2022-09-11T13:30:35.158Z,75.19
2022-09-11T13:33:11.419Z,75.40
2022-09-11T13:35:43.379Z,76.62
2022-09-11T13:38:21.470Z,77.39
2022-09-11T13:40:58.134Z,77.76
2022-09-11T13:43:32.536Z,77.63
2022-09-11T13:46:24.100Z,78.07
2022-09-11T13:49:01.613Z,78.03
2022-09-11T13:51:33.416Z,79.08
2022-09-11T13:54:11.756Z,78.69
2022-09-11T13:56:48.038Z,78.75
2022-09-11T13:59:41.726Z,78.46
2022-09-11T14:02:41.467Z,78.85
2022-09-11T14:05:20.901Z,80.07
2022-09-11T14:08:01.675Z,80.83
2022-09-11T14:10:34.088Z,80.67
2022-09-11T14:13:15.405Z,80.60
2022-09-11T14:15:50.789Z,81.49
2022-09-11T14:18:35.335Z,80.71
2022-09-11T14:21:15.982Z,81.35
2022-09-11T14:23:50.780Z,82.10
2022-09-11T14:26:22.960Z,82.71
2022-09-11T14:29:06.284Z,83.51
2022-09-11T14:31:40.092Z,83.89
2022-09-11T14:34:20.511Z,84.37
2022-09-11T14:36:59.449Z,84.00
2022-09-11T14:39:36.223Z,83.60
2022-09-11T14:42:10.080Z,83.69
2022-09-11T14:44:42.249Z,83.75
2022-09-11T14:47:19.205Z,82.42
2022-09-11T14:49:50.006Z,81.95
2022-09-11T14:52:24.822Z,81.12
2022-09-11T14:54:55.345Z,80.03
2022-09-11T14:57:33.981Z,80.53
2022-09-11T15:00:04.338Z,80.28
2022-09-11T15:02:34.510Z,80.36
2022-09-11T15:05:04.676Z,76.61
2022-09-11T15:07:37.385Z,64.64
2022-09-11T15:10:08.717Z,57.65
2022-09-11T15:12:38.790Z,53.46
2022-09-11T15:15:10.714Z,51.79
2022-09-11T15:17:40.892Z,48.73
2022-09-11T15:20:12.236Z,47.90
2022-09-11T15:22:44.938Z,44.14
2022-09-11T15:25:15.195Z,44.17
2022-09-11T15:27:45.315Z,42.40
2022-09-11T15:30:15.548Z,42.57
2022-09-11T15:32:45.341Z,43.75
2022-09-11T15:35:18.371Z,43.95
2022-09-11T15:37:51.068Z,42.44
2022-09-11T15:40:21.338Z,42.64
2022-09-11T15:42:52.174Z,42.34
2022-09-11T15:45:22.235Z,43.26
2022-09-11T15:47:52.071Z,42.99
2022-09-11T15:50:27.915Z,43.86
2022-09-11T15:53:02.012Z,44.59
2022-09-11T15:55:32.524Z,48.77
2022-09-11T15:58:03.287Z,48.52
2022-09-11T16:00:33.398Z,50.07
2022-09-11T16:03:03.497Z,49.71
2022-09-11T16:05:33.665Z,50.40
2022-09-11T16:08:06.324Z,49.96
2022-09-11T16:10:39.998Z,52.01
2022-09-11T16:13:10.553Z,54.41
2022-09-11T16:15:40.884Z,55.21
2022-09-11T16:18:12.076Z,56.56
2022-09-11T16:20:44.115Z,58.66
2022-09-11T16:23:16.874Z,60.39
2022-09-11T16:25:46.950Z,61.93
2022-09-11T16:28:17.056Z,62.90
2022-09-11T16:30:51.057Z,64.28
2022-09-11T16:33:23.066Z,65.18
2022-09-11T16:36:03.969Z,65.95
2022-09-11T16:38:39.514Z,66.64
2022-09-11T16:41:15.829Z,67.58
2022-09-11T16:43:48.730Z,68.91
2022-09-11T16:46:21.880Z,69.01
2022-09-11T16:48:54.928Z,69.02
2022-09-11T16:51:26.664Z,68.88
2022-09-11T16:53:59.658Z,69.75
2022-09-11T16:56:30.390Z,70.88
2022-09-11T16:59:00.336Z,71.85
2022-09-11T17:01:31.243Z,73.01
2022-09-11T17:04:01.479Z,72.82
2022-09-11T17:06:32.359Z,73.40
2022-09-11T17:09:06.329Z,73.96
2022-09-11T17:11:37.376Z,74.48
2022-09-11T17:14:08.295Z,75.10
2022-09-11T17:16:38.695Z,76.00
2022-09-11T17:19:10.526Z,77.45
2022-09-11T17:21:40.709Z,77.39
2022-09-11T17:24:14.179Z,77.85
2022-09-11T17:26:44.263Z,77.61
2022-09-11T17:29:14.854Z,78.35
2022-09-11T17:31:44.992Z,78.08
2022-09-11T17:34:15.095Z,78.49
2022-09-11T17:36:45.302Z,78.81
2022-09-11T17:39:17.988Z,79.30
2022-09-11T17:41:48.062Z,79.56
2022-09-11T17:44:18.267Z,79.38
2022-09-11T17:46:48.310Z,79.29
2022-09-11T17:49:18.506Z,79.93
2022-09-11T17:51:49.180Z,80.31
2022-09-11T17:54:22.222Z,81.44
2022-09-11T17:56:52.245Z,81.88
2022-09-11T17:59:22.365Z,82.28
2022-09-11T18:01:52.855Z,82.74
2022-09-11T18:04:22.992Z,83.46
2022-09-11T18:06:53.272Z,83.40
2022-09-11T18:09:26.109Z,83.27
2022-09-11T18:11:56.702Z,82.91
2022-09-11T18:14:27.777Z,83.08
2022-09-11T18:16:57.904Z,83.77
2022-09-11T18:19:28.234Z,83.70
2022-09-11T18:21:59.849Z,83.97
2022-09-11T18:24:33.219Z,85.12
2022-09-11T18:27:05.472Z,86.09
2022-09-11T18:29:35.827Z,86.85
2022-09-11T18:32:06.752Z,87.28
2022-09-11T18:34:37.023Z,87.65
2022-09-11T18:37:07.818Z,87.41
2022-09-11T18:39:40.920Z,87.39
2022-09-11T18:42:11.223Z,87.62
2022-09-11T18:44:41.538Z,87.36
2022-09-11T18:47:11.808Z,88.96
2022-09-11T18:49:42.243Z,89.59
2022-09-11T18:52:14.741Z,90.29
2022-09-11T18:54:47.656Z,91.30
2022-09-11T18:57:17.949Z,91.33
2022-09-11T18:59:49.017Z,91.96
2022-09-11T19:02:19.252Z,92.08
2022-09-11T19:04:49.762Z,91.38
2022-09-11T19:07:20.002Z,91.36
2022-09-11T19:09:54.125Z,90.56
2022-09-11T19:12:24.552Z,91.42
2022-09-11T19:14:55.679Z,91.63
2022-09-11T19:17:26.042Z,91.49
2022-09-11T19:19:56.396Z,91.50
2022-09-11T19:22:28.177Z,90.86
2022-09-11T19:25:01.264Z,89.95
2022-09-11T19:27:32.301Z,90.21
2022-09-11T19:30:02.887Z,90.89
2022-09-11T19:32:33.299Z,90.13
2022-09-11T19:35:04.002Z,90.13
2022-09-11T19:37:34.315Z,89.77
2022-09-11T19:40:07.781Z,91.13
2022-09-11T19:42:38.178Z,91.34
2022-09-11T19:45:10.799Z,91.32
2022-09-11T19:47:41.160Z,91.17
2022-09-11T19:50:17.575Z,91.27
2022-09-11T19:52:47.927Z,91.03
2022-09-11T19:55:20.878Z,91.00
2022-09-11T19:57:51.153Z,91.29
2022-09-11T20:00:22.915Z,91.13
2022-09-11T20:02:53.175Z,91.13
2022-09-11T20:05:23.814Z,91.45
2022-09-11T20:07:54.246Z,91.63
2022-09-11T20:10:27.851Z,91.89
2022-09-11T20:13:00.383Z,92.37
2022-09-11T20:15:31.203Z,93.05
2022-09-11T20:18:01.402Z,93.00
2022-09-11T20:20:31.717Z,93.26
2022-09-11T20:23:02.135Z,92.98
2022-09-11T20:25:35.259Z,91.95
2022-09-11T20:28:06.385Z,90.80
2022-09-11T20:30:37.043Z,90.85
2022-09-11T20:33:07.488Z,90.55
2022-09-11T20:35:38.006Z,90.21
2022-09-11T20:38:08.371Z,90.27
2022-09-11T20:40:44.022Z,89.92
2022-09-11T20:43:14.292Z,89.85
2022-09-11T20:45:48.241Z,90.27
2022-09-11T20:48:18.843Z,89.87
2022-09-11T20:50:50.507Z,89.70
2022-09-11T20:53:22.150Z,89.97
2022-09-11T20:55:55.178Z,89.77
2022-09-11T20:58:25.446Z,89.91
2022-09-11T21:00:55.820Z,90.76
2022-09-11T21:03:26.104Z,90.37
2022-09-11T21:05:57.642Z,89.79
2022-09-11T21:08:28.423Z,89.32
2022-09-11T21:11:05.076Z,89.51
2022-09-11T21:13:38.999Z,89.36
2022-09-11T21:16:11.682Z,89.55
2022-09-11T21:18:43.159Z,89.42
2022-09-11T21:21:13.267Z,89.52
2022-09-11T21:23:43.466Z,90.19
2022-09-11T21:26:18.702Z,90.09
2022-09-11T21:28:48.739Z,90.02
2022-09-11T21:31:19.798Z,90.81
2022-09-11T21:33:50.033Z,90.99
2022-09-11T21:36:20.697Z,90.89
2022-09-11T21:38:50.744Z,91.29
2022-09-11T21:41:23.502Z,91.69
2022-09-11T21:43:53.608Z,91.95
2022-09-11T21:46:23.907Z,92.14
2022-09-11T21:48:54.220Z,93.01
2022-09-11T21:51:25.120Z,93.01
2022-09-11T21:54:01.990Z,93.32
2022-09-11T21:56:36.946Z,93.13
2022-09-11T21:59:07.135Z,93.21
2022-09-11T22:01:38.467Z,93.07
2022-09-11T22:04:08.644Z,93.23
2022-09-11T22:06:38.746Z,93.64
2022-09-11T22:09:08.796Z,93.57
2022-09-11T22:11:41.900Z,93.49
2022-09-11T22:14:12.018Z,93.79
2022-09-11T22:16:42.117Z,94.05
2022-09-11T22:19:12.323Z,93.98
2022-09-11T22:21:42.642Z,94.14
2022-09-11T22:24:12.753Z,93.97
2022-09-11T22:26:45.321Z,94.43
2022-09-11T22:29:15.846Z,94.64
2022-09-11T22:31:45.952Z,95.03
2022-09-11T22:34:16.232Z,95.33
2022-09-11T22:36:49.368Z,95.44
2022-09-11T22:39:19.504Z,95.67
2022-09-11T22:41:52.377Z,95.78
2022-09-11T22:44:22.615Z,96.03
2022-09-11T22:46:52.706Z,95.78
2022-09-11T22:49:22.780Z,95.52
2022-09-11T22:51:52.880Z,95.30
2022-09-11T22:54:22.877Z,95.71
2022-09-11T22:56:55.525Z,95.33
2022-09-11T22:59:25.704Z,95.12
2022-09-11T23:01:55.857Z,95.38
2022-09-11T23:04:26.072Z,95.51
2022-09-11T23:07:08.573Z,95.09
2022-09-11T23:09:40.344Z,95.46
2022-09-11T23:12:13.646Z,95.93
2022-09-11T23:14:43.718Z,96.01
2022-09-11T23:17:13.820Z,95.97
2022-09-11T23:19:43.883Z,95.85
2022-09-11T23:22:14.066Z,96.21
2022-09-11T23:24:44.170Z,96.12
2022-09-11T23:27:16.844Z,96.07
2022-09-11T23:29:46.929Z,96.32
2022-09-11T23:32:16.989Z,96.78
2022-09-11T23:34:47.010Z,97.20
2022-09-11T23:37:16.989Z,96.94
2022-09-11T23:39:47.458Z,97.03
2022-09-11T23:42:20.229Z,97.38
2022-09-11T23:44:50.303Z,97.34
2022-09-11T23:47:20.406Z,97.45
2022-09-11T23:49:51.029Z,97.31
2022-09-11T23:52:21.177Z,97.32
2022-09-11T23:54:51.367Z,96.66
2022-09-11T23:57:24.082Z,96.92
2022-09-11T23:59:54.174Z,97.43
